Time;durP1;ratioP1;P1;durP2;ratioP2;P2;SDS_P1;SDS_P2;PMS_P1;PMS_P2;Temp;Humidity;BMP_temperature;BMP_pressure;BME280_temperature;BME280_humidity;BME280_pressure;Samples;Min_cycle;Max_cycle;Signal;HPM_P1;HPM_P2
2021/06/24 00:00:02;;;;;;;6.07;5.57;;;17.00;99.90;;;;;;5041092;28;20470;-86
2021/06/24 00:02:29;;;;;;;6.70;5.80;;;17.00;99.90;;;;;;5044033;28;20509;-86
2021/06/24 00:04:57;;;;;;;9.87;6.50;;;17.10;99.90;;;;;;5040954;28;20529;-87
2021/06/24 00:07:24;;;;;;;10.50;6.10;;;17.00;99.90;;;;;;5049355;28;20450;-86
2021/06/24 00:09:50;;;;;;;7.03;6.03;;;17.00;99.90;;;;;;5050921;28;20462;-87
2021/06/24 00:12:17;;;;;;;7.80;6.10;;;17.00;99.90;;;;;;5042199;28;20866;-86
2021/06/24 00:14:44;;;;;;;7.20;5.67;;;16.90;99.90;;;;;;5041871;28;20454;-87
2021/06/24 00:17:10;;;;;;;5.20;4.80;;;16.90;99.90;;;;;;5040470;28;20509;-86
2021/06/24 00:19:37;;;;;;;8.23;5.93;;;16.90;99.90;;;;;;5040110;28;20803;-86
2021/06/24 00:22:05;;;;;;;8.87;6.83;;;16.90;99.90;;;;;;5039023;28;20517;-86
2021/06/24 00:24:32;;;;;;;9.93;7.10;;;16.90;99.90;;;;;;5040102;28;20477;-87
2021/06/24 00:26:59;;;;;;;7.73;6.93;;;16.80;99.90;;;;;;5039698;28;20446;-86
2021/06/24 00:29:25;;;;;;;11.57;5.97;;;16.90;99.90;;;;;;5040135;28;20839;-87
2021/06/24 00:31:52;;;;;;;8.23;6.57;;;16.90;99.90;;;;;;5039331;28;20450;-87
2021/06/24 00:34:18;;;;;;;10.20;7.30;;;16.90;99.90;;;;;;5039085;28;20791;-86
2021/06/24 00:36:45;;;;;;;7.27;5.90;;;16.80;99.90;;;;;;5039337;28;20945;-87
2021/06/24 00:39:13;;;;;;;6.03;5.50;;;16.80;99.90;;;;;;5038754;28;20466;-86
2021/06/24 00:41:40;;;;;;;8.03;5.70;;;16.90;99.90;;;;;;5039830;28;20478;-86
2021/06/24 00:44:07;;;;;;;6.63;6.03;;;16.90;99.90;;;;;;5042622;28;20450;-87
2021/06/24 00:46:34;;;;;;;7.40;5.50;;;16.80;99.90;;;;;;5050931;28;20477;-86
2021/06/24 00:49:03;;;;;;;9.47;5.47;;;16.80;99.90;;;;;;5052270;28;20516;-86
2021/06/24 00:51:30;;;;;;;7.40;6.70;;;16.80;99.90;;;;;;5052742;28;20442;-86
2021/06/24 00:53:57;;;;;;;6.93;5.20;;;16.80;99.90;;;;;;5052869;28;20512;-86
2021/06/24 00:56:28;;;;;;;10.77;6.60;;;16.80;99.90;;;;;;5053190;28;20477;-86
2021/06/24 00:58:55;;;;;;;7.60;6.90;;;16.80;99.90;;;;;;5052553;28;20463;-86
2021/06/24 01:01:21;;;;;;;10.20;6.00;;;16.80;99.90;;;;;;5054018;28;20481;-85
2021/06/24 01:03:48;;;;;;;6.43;5.83;;;16.80;99.90;;;;;;5054547;28;20492;-85
2021/06/24 01:06:14;;;;;;;6.33;5.80;;;16.80;99.90;;;;;;5055441;28;20477;-86
2021/06/24 01:08:41;;;;;;;7.80;6.07;;;16.80;99.90;;;;;;5054560;28;20470;-86
2021/06/24 01:11:08;;;;;;;9.80;6.17;;;16.80;99.90;;;;;;5054854;28;20447;-85
2021/06/24 01:13:36;;;;;;;9.10;6.23;;;16.80;99.90;;;;;;5056187;28;20472;-86
2021/06/24 01:16:03;;;;;;;7.90;6.03;;;16.70;99.90;;;;;;5056732;28;20477;-86
2021/06/24 01:18:30;;;;;;;6.37;5.40;;;16.70;99.90;;;;;;5054352;28;20454;-86
2021/06/24 01:20:57;;;;;;;6.07;5.50;;;16.80;99.90;;;;;;5051946;28;20447;-86
2021/06/24 01:23:23;;;;;;;6.70;6.10;;;16.80;99.90;;;;;;5051114;28;20843;-86
2021/06/24 01:25:51;;;;;;;11.10;6.43;;;16.90;99.90;;;;;;5052798;28;20453;-86
2021/06/24 01:28:18;;;;;;;7.43;5.50;;;17.00;99.90;;;;;;5054061;28;20463;-86
2021/06/24 01:30:45;;;;;;;16.00;6.40;;;17.00;99.90;;;;;;5054551;28;20430;-87
2021/06/24 01:33:14;;;;;;;6.50;5.70;;;16.90;99.90;;;;;;5055101;28;20441;-86
2021/06/24 01:35:41;;;;;;;7.57;6.77;;;16.80;99.90;;;;;;5055142;28;20442;-85
2021/06/24 01:38:10;;;;;;;6.70;6.10;;;16.70;99.90;;;;;;5047519;28;20474;-86
2021/06/24 01:40:37;;;;;;;7.40;5.90;;;16.70;99.90;;;;;;5044848;28;20446;-87
2021/06/24 01:43:05;;;;;;;7.30;6.20;;;16.70;99.90;;;;;;5047480;28;20508;-87
2021/06/24 01:45:33;;;;;;;7.93;6.37;;;16.70;99.90;;;;;;5044834;28;20430;-87
2021/06/24 01:47:59;;;;;;;5.83;5.33;;;16.90;99.90;;;;;;5042539;28;20956;-87
2021/06/24 01:50:26;;;;;;;8.13;5.50;;;16.70;99.90;;;;;;5044924;28;20454;-86
2021/06/24 01:52:53;;;;;;;6.63;5.80;;;16.70;99.90;;;;;;5042593;28;20439;-86
2021/06/24 01:55:31;;;;;;;10.07;6.73;;;16.70;99.90;;;;;;5042301;28;20446;-86
2021/06/24 01:57:58;;;;;;;8.17;7.37;;;17.00;99.90;;;;;;5041972;28;20867;-85
2021/06/24 02:00:26;;;;;;;8.10;5.80;;;16.70;99.90;;;;;;5041573;28;20504;-87
2021/06/24 02:02:53;;;;;;;8.23;6.80;;;16.70;99.90;;;;;;5040254;28;20504;-87
2021/06/24 02:05:19;;;;;;;7.83;5.33;;;16.70;99.90;;;;;;5040968;28;20493;-86
2021/06/24 02:07:46;;;;;;;9.77;6.00;;;16.70;99.90;;;;;;5040615;28;20477;-86
2021/06/24 02:10:13;;;;;;;7.03;5.43;;;16.70;99.90;;;;;;5047182;28;20437;-86
2021/06/24 02:12:40;;;;;;;6.67;6.00;;;16.60;99.90;;;;;;5051752;28;20462;-86
2021/06/24 02:15:10;;;;;;;7.13;5.30;;;16.70;99.90;;;;;;5040057;28;20508;-86
2021/06/24 02:17:38;;;;;;;8.20;5.77;;;16.70;99.90;;;;;;5038790;28;20446;-86
2021/06/24 02:20:06;;;;;;;6.90;6.03;;;16.70;99.90;;;;;;5039900;28;20473;-85
2021/06/24 02:22:33;;;;;;;7.63;5.33;;;16.70;99.90;;;;;;5039809;28;20536;-86
2021/06/24 02:25:00;;;;;;;8.90;5.30;;;16.60;99.90;;;;;;5039675;28;20446;-86
2021/06/24 02:27:27;;;;;;;10.57;6.20;;;16.60;99.90;;;;;;5042735;28;20454;-86
2021/06/24 02:29:54;;;;;;;6.27;5.70;;;16.60;99.90;;;;;;5039620;28;20466;-87
2021/06/24 02:32:20;;;;;;;7.87;6.63;;;16.70;99.90;;;;;;5038987;28;20458;-86
2021/06/24 02:34:48;;;;;;;7.20;5.77;;;16.70;99.90;;;;;;5038543;28;20504;-86
2021/06/24 02:37:15;;;;;;;10.33;6.90;;;16.80;99.90;;;;;;5040400;28;20505;-87
2021/06/24 02:39:42;;;;;;;10.17;5.90;;;16.80;99.90;;;;;;5039924;28;20470;-86
2021/06/24 02:42:09;;;;;;;6.40;5.80;;;16.80;99.90;;;;;;5042888;28;20482;-86
2021/06/24 02:44:36;;;;;;;9.53;6.17;;;16.90;99.90;;;;;;5054306;28;20485;-86
2021/06/24 02:47:04;;;;;;;7.03;5.20;;;16.90;99.90;;;;;;5051494;28;20454;-86
2021/06/24 02:49:30;;;;;;;9.97;6.03;;;16.90;99.90;;;;;;5049636;28;20474;-85
2021/06/24 02:51:58;;;;;;;6.60;5.97;;;16.80;99.90;;;;;;5050796;28;20443;-85
2021/06/24 02:54:25;;;;;;;22.07;17.03;;;16.90;99.90;;;;;;5052352;28;20453;-86
2021/06/24 02:56:51;;;;;;;9.87;6.53;;;17.00;99.90;;;;;;5052695;28;20453;-86
2021/06/24 02:59:18;;;;;;;12.73;6.03;;;17.00;99.90;;;;;;5044469;28;20497;-85
2021/06/24 03:01:45;;;;;;;6.20;5.60;;;16.90;99.90;;;;;;5042142;28;20454;-86
2021/06/24 03:04:12;;;;;;;10.87;5.03;;;16.80;99.90;;;;;;5042854;28;20478;-86
2021/06/24 03:06:39;;;;;;;10.57;5.93;;;16.80;99.90;;;;;;5040408;28;20458;-87
2021/06/24 03:09:07;;;;;;;6.37;5.80;;;16.70;99.90;;;;;;5041115;28;20470;-86
2021/06/24 03:11:34;;;;;;;7.73;5.97;;;16.70;99.90;;;;;;5040685;28;20446;-86
2021/06/24 03:14:00;;;;;;;8.13;5.67;;;16.70;99.90;;;;;;5040044;28;20455;-86
2021/06/24 03:16:27;;;;;;;7.23;5.97;;;16.70;99.90;;;;;;5040222;28;20508;-86
2021/06/24 03:18:53;;;;;;;8.63;6.57;;;16.70;99.90;;;;;;5039143;28;20516;-86
2021/06/24 03:21:21;;;;;;;11.43;5.97;;;16.60;99.90;;;;;;5040548;28;20828;-86
2021/06/24 03:23:48;;;;;;;9.90;5.50;;;16.60;99.90;;;;;;5040854;28;20474;-86
2021/06/24 03:26:16;;;;;;;10.23;5.80;;;16.60;99.90;;;;;;5045857;28;21014;-86
2021/06/24 03:28:43;;;;;;;9.80;6.50;;;16.60;99.90;;;;;;5040285;28;20473;-86
2021/06/24 03:31:10;;;;;;;9.40;6.40;;;16.60;99.90;;;;;;5039844;28;20439;-86
2021/06/24 03:33:37;;;;;;;6.70;6.10;;;16.60;99.90;;;;;;5039181;28;20443;-85
2021/06/24 03:36:04;;;;;;;7.83;6.40;;;16.60;99.90;;;;;;5038400;28;20446;-86
2021/06/24 03:38:31;;;;;;;7.20;6.03;;;16.70;99.90;;;;;;5040538;28;20525;-86
2021/06/24 03:40:58;;;;;;;9.60;5.57;;;16.70;99.90;;;;;;5038507;28;20454;-86
2021/06/24 03:43:26;;;;;;;8.30;5.73;;;16.70;99.90;;;;;;5038711;28;20508;-86
2021/06/24 03:45:53;;;;;;;9.50;6.67;;;16.70;99.90;;;;;;5037962;28;20454;-85
2021/06/24 03:48:20;;;;;;;9.53;8.30;;;16.70;99.90;;;;;;5038845;28;20525;-86
2021/06/24 03:50:46;;;;;;;19.63;14.30;;;16.80;99.90;;;;;;5039679;28;20447;-86
2021/06/24 03:53:13;;;;;;;5.90;5.30;;;16.90;99.90;;;;;;5039080;28;20465;-86
2021/06/24 03:55:43;;;;;;;6.70;6.10;;;16.90;99.90;;;;;;5038342;28;20435;-86
2021/06/24 03:58:11;;;;;;;25.10;16.57;;;16.90;99.90;;;;;;5038266;28;20489;-86
2021/06/24 04:00:41;;;;;;;9.97;7.93;;;16.90;99.90;;;;;;5038111;28;20488;-86
2021/06/24 04:03:08;;;;;;;19.33;12.50;;;17.00;99.90;;;;;;5039307;28;20474;-86
2021/06/24 04:05:35;;;;;;;8.20;6.40;;;16.90;99.90;;;;;;5038598;28;20458;-86
2021/06/24 04:08:04;;;;;;;8.80;5.83;;;16.70;99.90;;;;;;5038901;28;20451;-86
2021/06/24 04:10:32;;;;;;;8.80;6.50;;;16.80;99.90;;;;;;5038600;28;20446;-86
2021/06/24 04:12:59;;;;;;;8.57;6.87;;;16.90;99.90;;;;;;5041635;28;20450;-86
2021/06/24 04:15:27;;;;;;;8.43;7.63;;;16.80;99.90;;;;;;5057592;28;20444;-85
2021/06/24 04:17:56;;;;;;;9.27;6.60;;;16.70;99.90;;;;;;5041050;28;20442;-86
2021/06/24 04:20:23;;;;;;;7.33;6.67;;;16.70;99.90;;;;;;5039321;28;20455;-86
2021/06/24 04:22:50;;;;;;;7.73;5.73;;;16.80;99.90;;;;;;5038109;28;20533;-86
2021/06/24 04:25:18;;;;;;;10.40;6.30;;;16.90;99.90;;;;;;5039565;28;20445;-86
2021/06/24 04:27:45;;;;;;;7.50;6.80;;;17.00;99.90;;;;;;5042436;28;20501;-86
2021/06/24 04:30:13;;;;;;;9.43;6.13;;;17.10;99.90;;;;;;5047602;28;20447;-86
2021/06/24 04:32:40;;;;;;;9.87;6.90;;;17.10;99.90;;;;;;5042472;28;20450;-86
2021/06/24 04:35:09;;;;;;;8.43;6.67;;;17.00;99.90;;;;;;5037769;28;20933;-86
2021/06/24 04:37:36;;;;;;;10.23;8.40;;;17.00;99.90;;;;;;5038224;28;20565;-86
2021/06/24 04:40:05;;;;;;;11.50;7.37;;;17.10;99.90;;;;;;5037452;28;20462;-85
2021/06/24 04:42:32;;;;;;;12.30;8.00;;;17.10;99.90;;;;;;5038113;28;20446;-86
2021/06/24 04:44:59;;;;;;;8.30;6.93;;;16.90;99.90;;;;;;5037535;28;20446;-86
2021/06/24 04:47:25;;;;;;;10.30;7.57;;;16.90;99.90;;;;;;5041692;28;20434;-86
2021/06/24 04:49:52;;;;;;;8.30;7.40;;;16.80;99.90;;;;;;5045686;28;20505;-86
2021/06/24 04:52:20;;;;;;;9.40;6.50;;;16.80;99.90;;;;;;5037687;28;20442;-86
2021/06/24 04:54:47;;;;;;;9.03;6.57;;;16.90;99.90;;;;;;5036231;28;20449;-86
2021/06/24 04:57:13;;;;;;;12.33;7.07;;;16.90;99.90;;;;;;5037413;28;20457;-87
2021/06/24 04:59:40;;;;;;;14.73;7.50;;;16.80;99.90;;;;;;5036745;28;20506;-86
2021/06/24 05:02:06;;;;;;;10.27;7.23;;;16.70;99.90;;;;;;5038201;28;20458;-87
2021/06/24 05:04:33;;;;;;;15.27;7.07;;;16.80;99.90;;;;;;5036959;28;20482;-87
2021/06/24 05:07:02;;;;;;;12.07;6.80;;;16.70;99.90;;;;;;5037844;28;20451;-87
2021/06/24 05:09:31;;;;;;;11.83;7.87;;;16.60;99.90;;;;;;5041117;28;20854;-87
2021/06/24 05:11:58;;;;;;;12.27;7.33;;;16.60;99.90;;;;;;5054870;28;20455;-87
2021/06/24 05:14:25;;;;;;;12.67;6.80;;;16.60;99.90;;;;;;5056039;28;20438;-86
2021/06/24 05:16:51;;;;;;;11.17;6.70;;;16.60;99.90;;;;;;5045259;28;20496;-86
2021/06/24 05:19:18;;;;;;;8.33;7.10;;;16.60;99.90;;;;;;5036553;28;20477;-86
2021/06/24 05:21:45;;;;;;;13.33;7.57;;;16.70;99.90;;;;;;5036585;28;20454;-86
2021/06/24 05:24:11;;;;;;;11.90;7.70;;;16.70;99.90;;;;;;5036190;28;20478;-85
2021/06/24 05:26:39;;;;;;;13.03;7.90;;;16.60;99.90;;;;;;5036120;28;20450;-86
2021/06/24 05:29:06;;;;;;;15.20;8.83;;;16.50;99.90;;;;;;5043536;28;20553;-86
2021/06/24 05:31:33;;;;;;;14.00;9.13;;;16.50;99.90;;;;;;5035741;28;20450;-86
2021/06/24 05:34:00;;;;;;;11.73;9.57;;;16.40;99.90;;;;;;5036906;28;20500;-86
2021/06/24 05:36:27;;;;;;;10.83;8.70;;;16.40;99.90;;;;;;5041196;28;20525;-86
2021/06/24 05:38:53;;;;;;;15.80;9.80;;;16.30;99.90;;;;;;5036748;28;20520;-86
2021/06/24 05:41:20;;;;;;;10.80;9.70;;;16.20;99.90;;;;;;5036960;28;20438;-86
2021/06/24 05:43:48;;;;;;;15.60;9.47;;;16.00;99.90;;;;;;5036283;28;20489;-86
2021/06/24 05:46:14;;;;;;;17.10;12.00;;;15.90;99.90;;;;;;5036003;28;20480;-85
2021/06/24 05:48:41;;;;;;;14.73;11.13;;;15.90;99.90;;;;;;5037260;28;20473;-85
2021/06/24 05:51:07;;;;;;;17.40;10.90;;;15.80;99.90;;;;;;5038315;28;20453;-85
2021/06/24 05:53:34;;;;;;;19.53;11.23;;;15.70;99.90;;;;;;5036993;28;20446;-86
2021/06/24 05:56:01;;;;;;;15.37;11.40;;;15.70;99.90;;;;;;5036680;28;20451;-86
2021/06/24 05:58:29;;;;;;;21.57;12.30;;;15.70;99.90;;;;;;5035384;28;20471;-85
2021/06/24 06:00:59;;;;;;;18.10;12.43;;;15.70;99.90;;;;;;5035076;28;20446;-86
2021/06/24 06:03:26;;;;;;;19.60;12.80;;;15.60;99.90;;;;;;5039268;28;20501;-86
2021/06/24 06:05:53;;;;;;;21.83;13.57;;;15.60;99.90;;;;;;5046508;28;20813;-85
2021/06/24 06:08:21;;;;;;;19.70;14.47;;;15.60;99.90;;;;;;5047928;28;20462;-86
2021/06/24 06:10:48;;;;;;;19.20;12.57;;;15.60;99.90;;;;;;5047990;28;20457;-86
2021/06/24 06:13:14;;;;;;;20.30;13.67;;;15.60;99.90;;;;;;5038163;28;20454;-86
2021/06/24 06:15:43;;;;;;;28.27;14.20;;;15.60;99.90;;;;;;5038675;28;20454;-87
2021/06/24 06:18:16;;;;;;;26.13;14.20;;;15.60;99.90;;;;;;5056790;28;20470;-86
2021/06/24 06:20:45;;;;;;;23.77;14.90;;;15.60;99.90;;;;;;5044779;28;20441;-86
2021/06/24 06:23:12;;;;;;;17.93;13.93;;;15.70;99.90;;;;;;5038799;28;20842;-86
2021/06/24 06:25:39;;;;;;;22.77;14.20;;;15.70;99.90;;;;;;5038965;28;20446;-86
2021/06/24 06:28:06;;;;;;;24.97;15.33;;;15.70;99.90;;;;;;5040195;28;20513;-86
2021/06/24 06:30:33;;;;;;;19.40;16.30;;;15.80;99.90;;;;;;5041097;28;20474;-86
2021/06/24 06:33:01;;;;;;;24.00;16.00;;;15.90;99.90;;;;;;5043517;28;20454;-86
2021/06/24 06:35:29;;;;;;;18.73;15.77;;;15.90;99.90;;;;;;5040879;28;20540;-86
2021/06/24 06:37:56;;;;;;;19.73;14.70;;;15.90;99.90;;;;;;5040900;28;20438;-86
2021/06/24 06:40:23;;;;;;;21.67;15.10;;;15.90;99.90;;;;;;5047781;28;20477;-86
2021/06/24 06:42:49;;;;;;;18.40;13.77;;;15.90;99.90;;;;;;5054509;28;20441;-86
2021/06/24 06:45:18;;;;;;;23.13;14.50;;;16.00;99.90;;;;;;5056388;28;20493;-86
2021/06/24 06:47:44;;;;;;;20.07;14.60;;;16.00;99.90;;;;;;5048092;28;20489;-87
2021/06/24 06:50:12;;;;;;;17.20;14.63;;;16.00;99.90;;;;;;5053939;28;20446;-86
2021/06/24 06:52:40;;;;;;;17.97;13.83;;;16.20;99.90;;;;;;5052799;28;20446;-86
2021/06/24 06:55:07;;;;;;;20.40;13.43;;;16.10;99.90;;;;;;5057167;28;20501;-86
2021/06/24 06:57:33;;;;;;;22.77;14.10;;;16.10;99.90;;;;;;5054433;28;20450;-86
2021/06/24 07:00:00;;;;;;;20.87;15.20;;;16.10;99.90;;;;;;5054078;28;20470;-84
2021/06/24 07:02:26;;;;;;;20.13;15.70;;;16.10;99.90;;;;;;5055024;28;20446;-83
2021/06/24 07:04:53;;;;;;;16.67;13.10;;;16.20;99.90;;;;;;5054719;28;20478;-83
2021/06/24 07:07:20;;;;;;;23.10;14.27;;;16.20;99.90;;;;;;5052651;28;20450;-84
2021/06/24 07:09:48;;;;;;;18.50;14.60;;;16.20;99.90;;;;;;5051995;28;20977;-83
2021/06/24 07:12:15;;;;;;;18.27;12.40;;;16.20;99.90;;;;;;5046961;28;20442;-83
2021/06/24 07:14:41;;;;;;;23.67;14.23;;;16.20;99.90;;;;;;5045735;28;20442;-83
2021/06/24 07:17:08;;;;;;;18.93;14.40;;;16.30;99.90;;;;;;5047729;28;20504;-83
2021/06/24 07:19:37;;;;;;;21.77;13.10;;;16.30;99.90;;;;;;5045310;28;20505;-84
2021/06/24 07:22:04;;;;;;;17.63;12.93;;;16.40;99.90;;;;;;5046838;28;20446;-83
2021/06/24 07:24:31;;;;;;;21.63;13.80;;;16.40;99.90;;;;;;5043493;28;20478;-83
2021/06/24 07:27:00;;;;;;;19.80;12.80;;;16.40;99.90;;;;;;5040101;28;20596;-83
2021/06/24 07:29:27;;;;;;;28.53;15.33;;;16.50;99.90;;;;;;5041480;28;20933;-83
2021/06/24 07:31:54;;;;;;;17.97;15.50;;;16.40;99.90;;;;;;5041909;28;20450;-83
2021/06/24 07:34:20;;;;;;;28.17;15.27;;;16.40;99.90;;;;;;5043289;28;20438;-82
2021/06/24 07:36:52;;;;;;;15.63;13.57;;;16.50;99.90;;;;;;5045163;28;20450;-84
2021/06/24 07:39:19;;;;;;;21.13;16.03;;;16.50;99.90;;;;;;5045406;28;20550;-84
2021/06/24 07:41:46;;;;;;;20.73;15.13;;;16.50;99.90;;;;;;5045949;28;20450;-83
2021/06/24 07:44:13;;;;;;;21.93;15.90;;;16.50;99.90;;;;;;5049443;28;20482;-83
2021/06/24 07:46:40;;;;;;;20.70;15.47;;;16.60;99.90;;;;;;5049703;28;20446;-82
2021/06/24 07:49:07;;;;;;;20.80;14.50;;;16.60;99.90;;;;;;5050738;28;20462;-83
2021/06/24 07:51:33;;;;;;;17.53;14.00;;;16.70;99.90;;;;;;5048919;28;20512;-84
2021/06/24 07:54:00;;;;;;;17.20;14.43;;;16.70;99.90;;;;;;5047738;28;20442;-83
2021/06/24 07:56:26;;;;;;;24.33;18.67;;;16.80;99.90;;;;;;5048398;28;20474;-83
2021/06/24 07:58:53;;;;;;;20.10;14.40;;;16.80;99.90;;;;;;5045546;28;20502;-83
2021/06/24 08:01:21;;;;;;;24.70;15.57;;;16.90;99.90;;;;;;5046558;28;20629;-83
2021/06/24 08:03:48;;;;;;;26.67;15.27;;;16.90;99.90;;;;;;5043674;28;20456;-83
2021/06/24 08:06:15;;;;;;;20.63;15.20;;;17.00;99.90;;;;;;5043438;28;20439;-82
2021/06/24 08:08:42;;;;;;;19.47;15.27;;;17.00;99.90;;;;;;5045695;28;20463;-83
2021/06/24 08:11:08;;;;;;;19.80;14.40;;;17.10;99.90;;;;;;5043896;28;20469;-83
2021/06/24 08:13:35;;;;;;;19.63;15.30;;;17.10;99.90;;;;;;5038897;28;20450;-83
2021/06/24 08:16:02;;;;;;;18.00;13.70;;;17.20;99.90;;;;;;5040717;28;20457;-83
2021/06/24 08:18:30;;;;;;;23.97;16.30;;;17.20;99.90;;;;;;5062161;22;20490;-83
2021/06/24 08:20:57;;;;;;;20.27;14.77;;;17.30;99.90;;;;;;5040061;28;20446;-83
2021/06/24 08:23:24;;;;;;;23.00;14.33;;;17.30;99.90;;;;;;5040144;28;20457;-82
2021/06/24 08:25:52;;;;;;;24.67;14.03;;;17.40;99.90;;;;;;5040270;28;20484;-82
2021/06/24 08:28:18;;;;;;;21.87;16.70;;;17.70;99.90;;;;;;5040615;28;20451;-82
2021/06/24 08:30:45;;;;;;;24.40;14.60;;;17.40;99.90;;;;;;5039197;28;20448;-82
2021/06/24 08:33:13;;;;;;;24.90;14.20;;;17.50;99.90;;;;;;5038618;28;20482;-81
2021/06/24 08:35:41;;;;;;;17.20;13.40;;;17.60;99.90;;;;;;5043905;28;20858;-82
2021/06/24 08:38:10;;;;;;;15.07;13.30;;;17.50;99.90;;;;;;5039422;28;20515;-82
2021/06/24 08:40:38;;;;;;;19.23;13.37;;;17.60;99.90;;;;;;5037956;28;20461;-84
2021/06/24 08:43:04;;;;;;;18.10;13.97;;;17.50;99.90;;;;;;5038305;28;20505;-82
2021/06/24 08:45:31;;;;;;;20.03;14.27;;;17.50;99.90;;;;;;5048042;28;20492;-82
2021/06/24 08:48:01;;;;;;;21.67;14.53;;;17.50;99.90;;;;;;5049341;28;20451;-81
2021/06/24 08:50:28;;;;;;;19.00;13.67;;;17.50;99.90;;;;;;5051237;28;20466;-81
2021/06/24 08:52:56;;;;;;;21.63;14.90;;;17.50;99.90;;;;;;5047927;28;20970;-81
2021/06/24 08:55:35;;;;;;;15.97;14.27;;;17.50;99.90;;;;;;5039993;28;20876;-82
2021/06/24 08:58:02;;;;;;;20.67;15.37;;;17.60;99.90;;;;;;5038357;28;20437;-82
2021/06/24 09:00:28;;;;;;;23.77;14.97;;;17.70;99.90;;;;;;5038422;28;20497;-81
2021/06/24 09:03:13;;;;;;;21.77;16.47;;;17.80;99.90;;;;;;5039790;28;20447;-81
2021/06/24 09:05:49;;;;;;;20.43;14.80;;;17.80;99.90;;;;;;5037355;28;20474;-82
2021/06/24 09:08:35;;;;;;;18.10;14.50;;;18.10;99.90;;;;;;5037212;28;20425;-82
2021/06/24 09:11:24;;;;;;;16.97;13.30;;;17.80;99.90;;;;;;5037377;28;20427;-83
2021/06/24 09:14:02;;;;;;;18.33;13.97;;;18.00;99.90;;;;;;5033850;28;20457;-83
2021/06/24 09:16:30;;;;;;;16.53;14.53;;;17.90;99.90;;;;;;5037438;28;20870;-82
2021/06/24 09:19:18;;;;;;;19.80;14.63;;;17.80;99.90;;;;;;5037657;28;20905;-82
2021/06/24 09:21:48;;;;;;;21.37;15.57;;;17.80;99.90;;;;;;5037709;28;20435;-83
2021/06/24 09:24:25;;;;;;;23.87;15.30;;;17.80;99.90;;;;;;5037715;28;20468;-83
2021/06/24 09:26:51;;;;;;;20.33;16.70;;;17.70;99.90;;;;;;5037709;28;20926;-83
2021/06/24 09:29:19;;;;;;;18.87;15.90;;;17.80;99.90;;;;;;5051887;28;20486;-83
2021/06/24 09:31:50;;;;;;;22.60;16.13;;;17.70;99.90;;;;;;5049736;28;20474;-83
2021/06/24 09:34:18;;;;;;;20.27;16.80;;;17.70;99.90;;;;;;5046135;28;20447;-82
2021/06/24 09:36:46;;;;;;;21.60;16.53;;;17.70;99.90;;;;;;5045988;28;20456;-83
2021/06/24 09:39:28;;;;;;;24.33;15.53;;;17.70;99.90;;;;;;5043329;28;20472;-82
2021/06/24 09:42:01;;;;;;;23.80;17.50;;;18.00;99.90;;;;;;5040908;28;20459;-83
2021/06/24 09:44:27;;;;;;;18.60;16.10;;;18.20;99.90;;;;;;5038014;28;20485;-84
2021/06/24 09:46:54;;;;;;;22.57;20.20;;;18.10;99.90;;;;;;5038161;28;20467;-84
2021/06/24 09:49:29;;;;;;;21.37;15.20;;;18.10;99.90;;;;;;5039435;28;20843;-84
2021/06/24 09:51:57;;;;;;;19.93;15.63;;;18.10;99.90;;;;;;5042843;28;20970;-84
2021/06/24 09:54:32;;;;;;;24.50;16.63;;;18.00;99.90;;;;;;5041523;28;20451;-83
2021/06/24 09:56:59;;;;;;;18.10;14.33;;;18.10;99.90;;;;;;5042667;28;20828;-84
2021/06/24 09:59:33;;;;;;;22.43;14.83;;;18.20;99.90;;;;;;5042763;28;20472;-84
2021/06/24 10:02:07;;;;;;;16.30;13.80;;;18.40;99.90;;;;;;5046968;28;20437;-84
2021/06/24 10:04:34;;;;;;;18.30;15.70;;;18.60;99.90;;;;;;5054769;28;20536;-83
2021/06/24 10:07:02;;;;;;;14.63;12.97;;;18.60;99.90;;;;;;5049784;28;20474;-83
2021/06/24 10:09:32;;;;;;;16.47;12.00;;;18.80;99.90;;;;;;5044345;28;20514;-83
2021/06/24 10:11:59;;;;;;;14.60;12.43;;;18.90;99.90;;;;;;5042402;28;20453;-83
2021/06/24 10:14:27;;;;;;;12.20;11.07;;;18.90;99.90;;;;;;5041810;28;20505;-83
2021/06/24 10:16:55;;;;;;;12.27;10.97;;;19.10;99.90;;;;;;5041786;28;20589;-83
2021/06/24 10:19:25;;;;;;;17.77;11.20;;;19.10;99.90;;;;;;5043289;28;20516;-80
2021/06/24 10:21:55;;;;;;;18.80;14.00;;;19.30;99.90;;;;;;5053100;28;20504;-80
2021/06/24 10:24:29;;;;;;;15.30;11.73;;;19.10;99.90;;;;;;5054227;28;20439;-81
2021/06/24 10:26:59;;;;;;;17.03;11.70;;;18.80;99.90;;;;;;5055169;28;20561;-81
2021/06/24 10:29:38;;;;;;;16.77;13.00;;;18.60;99.90;;;;;;5053717;28;20474;-81
2021/06/24 10:32:25;;;;;;;18.30;12.87;;;18.50;99.90;;;;;;5042685;28;20436;-83
2021/06/24 10:34:52;;;;;;;12.33;9.67;;;18.40;99.90;;;;;;5042369;28;20490;-81
2021/06/24 10:37:23;;;;;;;15.10;13.10;;;18.40;99.90;;;;;;5040773;28;20480;-81
2021/06/24 10:39:50;;;;;;;15.40;11.40;;;18.50;99.90;;;;;;5042085;28;20469;-81
2021/06/24 10:42:20;;;;;;;17.40;12.70;;;18.50;99.90;;;;;;5042973;28;20473;-82
2021/06/24 10:44:48;;;;;;;16.93;11.47;;;18.60;99.90;;;;;;5042228;28;20476;-83
2021/06/24 10:47:25;;;;;;;15.77;12.87;;;18.50;99.90;;;;;;5042320;28;20504;-81
2021/06/24 10:49:52;;;;;;;18.57;13.00;;;18.40;99.90;;;;;;5047545;28;20533;-82
2021/06/24 10:52:26;;;;;;;19.53;12.50;;;18.70;99.90;;;;;;5043370;28;20457;-82
2021/06/24 10:54:52;;;;;;;12.53;11.20;;;18.80;99.90;;;;;;5044011;28;20818;-83
2021/06/24 10:57:39;;;;;;;12.43;10.40;;;18.80;99.90;;;;;;5041895;28;20448;-83
2021/06/24 11:00:32;;;;;;;16.43;10.13;;;18.90;99.90;;;;;;5045419;28;20492;-81
2021/06/24 11:03:00;;;;;;;14.90;10.97;;;18.90;99.90;;;;;;5053401;28;20476;-81
2021/06/24 11:05:34;;;;;;;13.83;11.43;;;19.00;99.90;;;;;;5053692;28;20538;-81
2021/06/24 11:08:09;;;;;;;12.10;10.73;;;19.00;99.90;;;;;;5052423;28;20434;-81
2021/06/24 11:10:51;;;;;;;11.87;10.70;;;19.20;99.90;;;;;;5047604;28;20503;-82
2021/06/24 11:13:48;;;;;;;22.73;10.33;;;19.60;99.90;;;;;;5042091;28;20547;-81
2021/06/24 11:16:31;;;;;;;12.83;11.33;;;19.80;99.90;;;;;;5042462;28;20415;-81
2021/06/24 11:19:04;;;;;;;17.27;12.83;;;19.80;99.90;;;;;;5042623;28;20489;-81
2021/06/24 11:21:50;;;;;;;15.53;11.20;;;19.60;99.90;;;;;;5042008;28;20477;-81
2021/06/24 11:24:23;;;;;;;13.07;9.20;;;19.40;99.90;;;;;;5052423;28;20411;-81
2021/06/24 11:26:51;;;;;;;10.37;9.30;;;19.40;99.90;;;;;;5055240;28;20489;-82
2021/06/24 11:32:11;;;;;;;12.30;9.87;;;19.30;99.90;;;;;;5037350;28;20447;-82
2021/06/24 11:34:47;;;;;;;10.80;9.70;;;19.40;99.90;;;;;;5046749;28;20492;-79
2021/06/24 11:37:15;;;;;;;14.30;11.77;;;19.40;99.90;;;;;;5049605;28;20453;-83
2021/06/24 11:39:44;;;;;;;13.80;10.37;;;19.70;99.90;;;;;;5041411;28;20552;-82
2021/06/24 11:42:14;;;;;;;12.43;10.83;;;19.60;99.90;;;;;;5040198;28;20439;-83
2021/06/24 11:44:45;;;;;;;12.40;10.63;;;19.70;99.90;;;;;;5039442;28;20475;-82
2021/06/24 11:47:13;;;;;;;10.37;9.47;;;19.80;99.90;;;;;;5039815;28;20435;-83
2021/06/24 12:01:51;;;;;;;11.93;10.17;;;20.50;99.90;;;;;;5041155;28;20411;-81
2021/06/24 12:04:19;;;;;;;13.77;10.70;;;20.40;99.90;;;;;;5039959;28;20526;-80
2021/06/24 12:06:52;;;;;;;11.17;10.07;;;20.20;99.90;;;;;;5042200;28;20493;-83
2021/06/24 12:09:28;;;;;;;10.27;9.27;;;20.10;99.90;;;;;;5038994;28;20475;-81
2021/06/24 12:12:00;;;;;;;7.57;6.80;;;20.10;99.90;;;;;;5038934;28;20766;-81
2021/06/24 12:14:29;;;;;;;8.40;7.50;;;20.30;99.90;;;;;;5042675;28;20525;-82
2021/06/24 12:17:17;;;;;;;8.80;6.50;;;20.30;99.90;;;;;;5038889;28;20446;-82
2021/06/24 12:19:55;;;;;;;8.27;6.77;;;20.20;99.90;;;;;;5040273;28;20851;-82
2021/06/24 12:22:25;;;;;;;8.40;7.60;;;20.20;99.90;;;;;;5055138;28;20422;-78
2021/06/24 12:24:53;;;;;;;10.63;9.63;;;20.30;99.90;;;;;;5046460;28;20465;-81
2021/06/24 12:27:28;;;;;;;9.20;7.10;;;20.50;99.90;;;;;;5041223;28;20469;-82
2021/06/24 12:29:56;;;;;;;7.57;6.60;;;20.60;99.90;;;;;;5040200;28;20557;-82
2021/06/24 12:32:25;;;;;;;7.17;6.47;;;20.50;99.90;;;;;;5038844;28;20496;-81
2021/06/24 12:34:55;;;;;;;7.73;6.47;;;20.60;99.90;;;;;;5038138;28;20501;-82
2021/06/24 12:37:29;;;;;;;7.83;7.03;;;20.80;99.90;;;;;;5038505;28;20446;-82
2021/06/24 12:39:57;;;;;;;10.23;7.13;;;20.70;99.90;;;;;;5038677;28;20493;-82
2021/06/24 12:42:23;;;;;;;8.83;7.93;;;20.90;99.90;;;;;;5038815;28;20443;-82
2021/06/24 12:44:50;;;;;;;6.73;6.23;;;21.00;99.90;;;;;;5039405;28;20480;-82
2021/06/24 12:47:34;;;;;;;7.80;6.57;;;20.80;99.90;;;;;;5039913;28;20481;-83
2021/06/24 12:50:10;;;;;;;8.33;7.50;;;20.90;99.90;;;;;;5048290;28;20485;-82
2021/06/24 12:52:37;;;;;;;10.03;7.50;;;20.90;99.90;;;;;;5049785;28;20402;-82
2021/06/24 12:55:09;;;;;;;6.73;6.03;;;21.00;99.90;;;;;;5056112;28;20449;-82
2021/06/24 12:57:36;;;;;;;6.90;6.17;;;20.80;99.90;;;;;;5055474;28;20419;-81